createdAt,value
2018-11-27T00:00:32.724Z,85.22
2018-11-27T00:01:32.740Z,84.75
2018-11-27T00:02:32.751Z,84.94
2018-11-27T00:03:32.778Z,84.94
2018-11-27T00:04:32.774Z,85.32
2018-11-27T00:05:32.795Z,85.22
2018-11-27T00:06:32.813Z,84.75
2018-11-27T00:07:32.829Z,84.17
2018-11-27T00:08:32.836Z,83.51
2018-11-27T00:09:32.868Z,84.27
2018-11-27T00:10:32.864Z,84.27
2018-11-27T00:11:32.890Z,83.32
2018-11-27T00:12:32.932Z,83.17
2018-11-27T00:13:32.917Z,82.84
2018-11-27T00:14:32.981Z,82.98
2018-11-27T00:15:32.965Z,82.84
2018-11-27T00:16:32.952Z,82.69
2018-11-27T00:17:32.973Z,82.93
2018-11-27T00:18:32.989Z,82.75
2018-11-27T00:19:33.014Z,83.98
2018-11-27T00:20:33.033Z,83.22
2018-11-27T00:21:33.045Z,83.22
2018-11-27T00:22:33.050Z,85.18
2018-11-27T00:23:33.063Z,85.03
2018-11-27T00:24:33.080Z,83.98
2018-11-27T00:25:33.227Z,84.27
2018-11-27T00:26:33.115Z,83.51
2018-11-27T00:27:33.120Z,83.22
2018-11-27T00:28:33.135Z,82.75
2018-11-27T00:29:33.146Z,84.13
2018-11-27T00:30:33.169Z,84.36
2018-11-27T00:31:33.176Z,83.22
2018-11-27T00:32:33.214Z,82.56
2018-11-27T00:33:33.214Z,82.75
2018-11-27T00:34:33.222Z,84.36
2018-11-27T00:35:33.239Z,84.70
2018-11-27T00:36:33.248Z,85.18
2018-11-27T00:37:33.275Z,84.56
2018-11-27T00:38:33.285Z,83.41
2018-11-27T00:39:33.294Z,83.61
2018-11-27T00:40:33.340Z,82.84
2018-11-27T00:41:33.329Z,83.80
2018-11-27T00:42:33.392Z,83.41
2018-11-27T00:43:33.356Z,83.22
2018-11-27T00:44:33.391Z,83.22
2018-11-27T00:45:33.399Z,83.03
2018-11-27T00:46:33.410Z,84.17
2018-11-27T00:47:33.412Z,83.51
2018-11-27T00:48:33.429Z,83.03
2018-11-27T00:49:33.452Z,83.32
2018-11-27T00:50:33.468Z,83.32
2018-11-27T00:51:33.470Z,82.93
2018-11-27T00:52:33.499Z,82.75
2018-11-27T00:53:33.504Z,82.37
2018-11-27T00:54:33.526Z,82.75
2018-11-27T00:55:33.573Z,82.93
2018-11-27T00:56:33.550Z,82.84
2018-11-27T00:57:33.564Z,82.56
2018-11-27T00:58:33.574Z,82.37
2018-11-27T00:59:33.630Z,82.27
2018-11-27T01:00:33.606Z,82.37
2018-11-27T01:01:33.623Z,82.56
2018-11-27T01:02:33.643Z,82.37
2018-11-27T01:03:33.649Z,83.41
2018-11-27T01:04:33.665Z,84.08
2018-11-27T01:05:33.681Z,85.28
2018-11-27T01:06:33.697Z,85.85
2018-11-27T01:07:33.704Z,85.75
2018-11-27T01:08:33.720Z,85.75
2018-11-27T01:09:33.774Z,85.66
2018-11-27T01:10:33.821Z,85.18
2018-11-27T01:11:33.771Z,85.22
2018-11-27T01:13:33.798Z,85.22
2018-11-27T01:14:33.811Z,85.13
2018-11-27T01:15:33.831Z,84.75
2018-11-27T01:16:54.869Z,84.08
2018-11-27T01:17:33.864Z,83.80
2018-11-27T01:18:33.884Z,83.61
2018-11-27T01:19:33.908Z,83.89
2018-11-27T01:20:33.915Z,83.80
2018-11-27T01:21:33.927Z,83.70
2018-11-27T01:22:33.940Z,84.52
2018-11-27T01:23:33.955Z,85.75
2018-11-27T01:24:33.973Z,85.60
2018-11-27T01:25:33.990Z,84.36
2018-11-27T01:26:34.000Z,85.47
2018-11-27T01:27:34.098Z,85.89
2018-11-27T01:28:34.026Z,85.32
2018-11-27T01:29:34.047Z,84.75
2018-11-27T01:30:34.061Z,84.46
2018-11-27T01:31:34.072Z,84.46
2018-11-27T01:32:34.120Z,86.22
2018-11-27T01:33:34.102Z,86.61
2018-11-27T01:34:34.146Z,85.85
2018-11-27T01:35:34.134Z,85.89
2018-11-27T01:36:34.200Z,85.32
2018-11-27T01:37:34.160Z,84.56
2018-11-27T01:38:34.180Z,84.75
2018-11-27T01:39:34.191Z,84.75
2018-11-27T01:40:34.228Z,84.75
2018-11-27T01:41:34.224Z,84.75
2018-11-27T01:42:34.245Z,83.89
2018-11-27T01:43:34.265Z,84.27
2018-11-27T01:44:34.329Z,84.17
2018-11-27T01:45:34.281Z,83.89
2018-11-27T01:46:34.306Z,83.51
2018-11-27T01:47:34.313Z,83.98
2018-11-27T01:48:34.342Z,84.65
2018-11-27T01:49:34.349Z,85.13
2018-11-27T01:50:34.361Z,84.94
2018-11-27T01:51:34.379Z,85.85
2018-11-27T01:52:34.393Z,85.32
2018-11-27T01:53:34.403Z,85.56
2018-11-27T01:54:34.417Z,85.80
2018-11-27T01:55:34.530Z,85.32
2018-11-27T01:56:34.451Z,85.94
2018-11-27T01:57:34.460Z,85.60
2018-11-27T01:58:34.492Z,84.84
2018-11-27T01:59:34.495Z,84.17
2018-11-27T02:00:34.508Z,84.46
2018-11-27T02:01:34.534Z,84.08
2018-11-27T02:02:34.535Z,85.41
2018-11-27T02:03:34.557Z,85.32
2018-11-27T02:04:34.579Z,85.03
2018-11-27T02:05:34.582Z,85.03
2018-11-27T02:06:34.600Z,85.22
2018-11-27T02:07:34.621Z,84.65
2018-11-27T02:08:34.631Z,84.36
2018-11-27T02:09:34.651Z,84.17
2018-11-27T02:10:34.675Z,85.03
2018-11-27T02:11:34.696Z,85.18
2018-11-27T02:12:34.694Z,85.03
2018-11-27T02:13:34.699Z,83.89
2018-11-27T02:14:34.754Z,84.52
2018-11-27T02:15:34.730Z,84.17
2018-11-27T02:16:34.748Z,84.36
2018-11-27T02:17:34.768Z,83.70
2018-11-27T02:18:34.778Z,83.61
2018-11-27T02:19:34.798Z,85.08
2018-11-27T02:20:34.811Z,85.22
2018-11-27T02:21:34.825Z,84.46
2018-11-27T02:22:34.835Z,83.51
2018-11-27T02:23:34.851Z,83.70
2018-11-27T02:24:34.863Z,84.27
2018-11-27T02:25:34.888Z,85.18
2018-11-27T02:26:34.901Z,84.46
2018-11-27T02:27:34.915Z,84.27
2018-11-27T02:28:34.924Z,83.80
2018-11-27T02:29:34.967Z,83.13
2018-11-27T02:30:34.953Z,83.22
2018-11-27T02:31:34.979Z,83.94
2018-11-27T02:33:35.026Z,84.27
2018-11-27T02:34:35.025Z,83.80
2018-11-27T02:35:35.038Z,83.80
2018-11-27T02:36:35.040Z,84.17
2018-11-27T02:37:35.060Z,84.99
2018-11-27T02:38:35.077Z,86.22
2018-11-27T02:39:35.095Z,86.80
2018-11-27T02:40:35.172Z,87.13
2018-11-27T02:41:35.119Z,86.80
2018-11-27T02:42:35.133Z,85.28
2018-11-27T02:43:35.158Z,84.75
2018-11-27T02:44:35.169Z,84.17
2018-11-27T02:46:35.191Z,83.13
2018-11-27T02:47:35.208Z,83.22
2018-11-27T02:48:35.217Z,83.32
2018-11-27T02:49:35.238Z,83.80
2018-11-27T02:50:35.249Z,83.13
2018-11-27T02:51:35.264Z,83.03
2018-11-27T02:52:35.311Z,83.32
2018-11-27T02:53:35.440Z,83.70
2018-11-27T02:54:35.313Z,83.80
2018-11-27T02:55:35.328Z,83.41
2018-11-27T02:56:35.380Z,83.13
2018-11-27T02:57:35.360Z,83.65
2018-11-27T02:58:35.368Z,85.28
2018-11-27T02:59:35.387Z,84.23
2018-11-27T03:00:35.455Z,83.70
2018-11-27T03:01:35.414Z,83.32
2018-11-27T03:02:35.425Z,83.41
2018-11-27T03:03:35.445Z,82.75
2018-11-27T03:04:35.451Z,82.27
2018-11-27T03:05:35.469Z,82.27
2018-11-27T03:06:35.484Z,82.27
2018-11-27T03:07:35.501Z,82.27
2018-11-27T03:08:35.540Z,82.37
2018-11-27T03:09:35.535Z,82.99
2018-11-27T03:10:35.565Z,83.56
2018-11-27T03:11:35.566Z,83.13
2018-11-27T03:12:35.588Z,83.18
2018-11-27T03:13:35.586Z,83.18
2018-11-27T03:14:35.617Z,82.84
2018-11-27T03:15:35.618Z,83.37
2018-11-27T03:16:35.630Z,84.99
2018-11-27T03:17:35.661Z,84.80
2018-11-27T03:18:35.661Z,85.18
2018-11-27T03:19:35.693Z,85.37
2018-11-27T03:20:35.692Z,85.66
2018-11-27T03:21:35.720Z,85.56
2018-11-27T03:22:35.733Z,85.08
2018-11-27T03:23:35.752Z,84.80
2018-11-27T03:24:35.750Z,84.61
2018-11-27T03:25:35.811Z,84.23
2018-11-27T03:26:35.773Z,83.65
2018-11-27T03:27:56.809Z,83.56
2018-11-27T03:28:35.814Z,83.61
2018-11-27T03:29:35.833Z,83.03
2018-11-27T03:30:35.834Z,82.56
2018-11-27T03:31:35.936Z,82.27
2018-11-27T03:32:35.866Z,82.56
2018-11-27T03:33:35.888Z,81.70
2018-11-27T03:34:35.894Z,82.32
2018-11-27T03:35:35.911Z,82.84
2018-11-27T03:36:35.938Z,83.47
2018-11-27T03:37:35.939Z,83.22
2018-11-27T03:38:36.087Z,83.75
2018-11-27T03:39:35.974Z,84.23
2018-11-27T03:41:35.996Z,84.04
2018-11-27T03:42:36.020Z,84.04
2018-11-27T03:43:36.032Z,83.65
2018-11-27T03:44:36.054Z,83.56
2018-11-27T03:45:36.058Z,83.41
2018-11-27T03:46:36.078Z,82.90
2018-11-27T03:47:36.093Z,83.03
2018-11-27T03:48:36.103Z,82.90
2018-11-27T03:49:36.116Z,82.80
2018-11-27T03:50:36.140Z,82.14
2018-11-27T03:51:36.147Z,83.28
2018-11-27T03:52:36.161Z,82.51
2018-11-27T03:53:36.195Z,82.37
2018-11-27T03:54:36.196Z,82.56
2018-11-27T03:55:36.259Z,81.89
2018-11-27T03:56:36.224Z,82.08
2018-11-27T03:57:36.235Z,81.95
2018-11-27T03:58:36.254Z,82.99
2018-11-27T03:59:36.273Z,82.27
2018-11-27T04:00:36.287Z,81.41
2018-11-27T04:01:36.297Z,81.56
2018-11-27T04:02:36.317Z,81.51
2018-11-27T04:03:36.324Z,81.66
2018-11-27T04:04:36.344Z,82.04
2018-11-27T04:05:36.350Z,83.09
2018-11-27T04:06:36.361Z,82.42
2018-11-27T04:07:36.385Z,81.70
2018-11-27T04:08:36.405Z,81.56
2018-11-27T04:09:36.404Z,82.32
2018-11-27T04:10:36.437Z,82.42
2018-11-27T04:11:36.446Z,82.23
2018-11-27T04:12:36.485Z,82.18
2018-11-27T04:13:36.466Z,81.70
2018-11-27T04:14:36.493Z,81.60
2018-11-27T04:15:36.493Z,81.85
2018-11-27T04:16:36.514Z,81.95
2018-11-27T04:17:36.528Z,82.14
2018-11-27T04:18:36.542Z,81.56
2018-11-27T04:19:36.553Z,83.81
2018-11-27T04:20:36.584Z,83.85
2018-11-27T04:21:36.584Z,84.56
2018-11-27T04:23:36.653Z,84.13
2018-11-27T04:24:36.634Z,83.18
2018-11-27T04:25:36.644Z,82.32
2018-11-27T04:26:36.650Z,82.04
2018-11-27T04:27:36.672Z,82.23
2018-11-27T04:29:36.706Z,83.28
2018-11-27T04:30:36.712Z,82.37
2018-11-27T04:31:36.729Z,81.56
2018-11-27T04:32:36.745Z,82.51
2018-11-27T04:33:36.756Z,82.23
2018-11-27T04:34:36.772Z,82.14
2018-11-27T04:35:36.788Z,82.70
2018-11-27T04:36:36.819Z,83.09
2018-11-27T04:37:36.813Z,82.80
2018-11-27T04:38:36.827Z,82.04
2018-11-27T04:39:36.844Z,82.23
2018-11-27T04:40:36.894Z,81.79
2018-11-27T04:41:36.914Z,81.95
2018-11-27T04:42:36.889Z,81.60
2018-11-27T04:43:36.907Z,81.79
2018-11-27T04:44:36.918Z,81.70
2018-11-27T04:45:36.934Z,81.32
2018-11-27T04:46:36.950Z,81.28
2018-11-27T04:47:36.966Z,82.80
2018-11-27T04:48:36.987Z,83.28
2018-11-27T04:49:36.999Z,82.27
2018-11-27T04:50:37.011Z,81.70
2018-11-27T04:51:37.020Z,81.28
2018-11-27T04:52:37.036Z,81.76
2018-11-27T04:53:37.063Z,82.14
2018-11-27T04:54:37.066Z,82.42
2018-11-27T04:55:37.130Z,83.18
2018-11-27T04:56:37.093Z,83.42
2018-11-27T04:57:37.107Z,84.56
2018-11-27T04:58:37.119Z,83.37
2018-11-27T04:59:37.147Z,82.99
2018-11-27T05:00:37.155Z,82.14
2018-11-27T05:01:37.173Z,82.42
2018-11-27T05:02:37.194Z,82.14
2018-11-27T05:03:37.248Z,81.66
2018-11-27T05:04:37.213Z,82.70
2018-11-27T05:05:37.235Z,84.00
2018-11-27T05:06:37.238Z,84.23
2018-11-27T05:07:37.262Z,83.75
2018-11-27T05:08:37.358Z,82.70
2018-11-27T05:09:37.316Z,83.09
2018-11-27T05:10:37.294Z,82.90
2018-11-27T05:11:37.312Z,82.32
2018-11-27T05:12:37.417Z,81.95
2018-11-27T05:13:37.353Z,81.41
2018-11-27T05:14:37.423Z,81.13
2018-11-27T05:15:37.428Z,81.03
2018-11-27T05:16:37.382Z,81.03
2018-11-27T05:17:37.401Z,81.41
2018-11-27T05:18:37.415Z,81.37
2018-11-27T05:19:37.469Z,81.66
2018-11-27T05:20:37.478Z,81.56
2018-11-27T05:21:37.483Z,81.76
2018-11-27T05:22:37.504Z,81.47
2018-11-27T05:23:37.483Z,81.13
2018-11-27T05:24:37.497Z,80.94
2018-11-27T05:26:37.528Z,82.04
2018-11-27T05:27:37.547Z,81.56
2018-11-27T05:28:37.555Z,81.70
2018-11-27T05:29:37.584Z,81.56
2018-11-27T05:30:37.584Z,80.90
2018-11-27T05:31:37.601Z,81.76
2018-11-27T05:32:37.611Z,82.99
2018-11-27T05:33:37.647Z,82.32
2018-11-27T05:34:37.654Z,82.04
2018-11-27T05:35:37.661Z,83.56
2018-11-27T05:36:37.677Z,83.37
2018-11-27T05:37:37.689Z,82.70
2018-11-27T05:38:37.716Z,82.23
2018-11-27T05:39:37.718Z,82.90
2018-11-27T05:40:37.737Z,84.04
2018-11-27T05:41:37.748Z,83.14
2018-11-27T05:42:37.795Z,84.09
2018-11-27T05:43:37.771Z,84.28
2018-11-27T05:44:37.788Z,84.19
2018-11-27T05:45:37.803Z,83.62
2018-11-27T05:46:37.817Z,82.99
2018-11-27T05:47:37.885Z,82.99
2018-11-27T05:48:37.853Z,82.70
2018-11-27T05:49:37.875Z,81.95
2018-11-27T05:50:37.895Z,82.04
2018-11-27T05:51:37.891Z,83.33
2018-11-27T05:52:37.907Z,83.71
2018-11-27T05:53:38.039Z,84.66
2018-11-27T05:54:37.954Z,84.56
2018-11-27T05:55:37.954Z,84.66
2018-11-27T05:56:37.965Z,84.66
2018-11-27T05:57:37.979Z,84.13
2018-11-27T05:58:38.008Z,83.09
2018-11-27T05:59:38.027Z,82.42
2018-11-27T06:00:38.027Z,81.56
2018-11-27T06:01:38.034Z,81.37
2018-11-27T06:02:38.049Z,81.85
2018-11-27T06:03:38.070Z,82.61
2018-11-27T06:04:38.080Z,82.90
2018-11-27T06:05:38.099Z,83.28
2018-11-27T06:07:38.127Z,84.28
2018-11-27T06:08:38.146Z,84.28
2018-11-27T06:09:38.156Z,84.56
2018-11-27T06:10:38.196Z,84.76
2018-11-27T06:11:38.195Z,84.38
2018-11-27T06:12:38.216Z,84.00
2018-11-27T06:13:38.218Z,83.81
2018-11-27T06:14:38.232Z,84.38
2018-11-27T06:15:38.242Z,83.75
2018-11-27T06:16:38.264Z,83.37
2018-11-27T06:17:38.268Z,81.56
2018-11-27T06:18:38.288Z,82.51
2018-11-27T06:19:38.310Z,81.66
2018-11-27T06:20:38.330Z,82.09
2018-11-27T06:21:38.328Z,83.90
2018-11-27T06:22:38.348Z,83.62
2018-11-27T06:23:38.364Z,82.61
2018-11-27T06:24:38.373Z,81.76
2018-11-27T06:25:38.394Z,81.56
2018-11-27T06:26:38.427Z,81.37
2018-11-27T06:27:38.458Z,81.37
2018-11-27T06:28:38.431Z,82.04
2018-11-27T06:29:38.449Z,82.23
2018-11-27T06:30:38.462Z,81.76
2018-11-27T06:31:38.479Z,81.37
2018-11-27T06:32:38.523Z,81.37
2018-11-27T06:33:38.524Z,81.18
2018-11-27T06:34:38.519Z,81.47
2018-11-27T06:35:38.530Z,81.56
2018-11-27T06:36:38.548Z,81.95
2018-11-27T06:37:38.581Z,81.47
2018-11-27T06:38:38.664Z,82.19
2018-11-27T06:39:38.597Z,83.52
2018-11-27T06:40:38.608Z,82.32
2018-11-27T06:41:38.624Z,81.71
2018-11-27T06:42:38.644Z,82.14
2018-11-27T06:43:38.650Z,82.04
2018-11-27T06:44:38.666Z,81.28
2018-11-27T06:45:38.675Z,81.56
2018-11-27T06:46:38.699Z,82.38
2018-11-27T06:47:38.707Z,82.42
2018-11-27T06:48:38.731Z,81.66
2018-11-27T06:49:38.741Z,81.76
2018-11-27T06:50:38.759Z,82.09
2018-11-27T06:51:38.760Z,83.04
2018-11-27T06:52:38.783Z,83.04
2018-11-27T06:53:38.820Z,81.76
2018-11-27T06:54:38.823Z,81.47
2018-11-27T06:55:38.876Z,82.28
2018-11-27T06:56:38.839Z,82.67
2018-11-27T06:57:38.860Z,83.23
2018-11-27T06:58:38.870Z,82.14
2018-11-27T06:59:38.881Z,81.90
2018-11-27T07:00:38.893Z,83.04
2018-11-27T07:01:38.918Z,83.90
2018-11-27T07:02:38.926Z,84.28
2018-11-27T07:03:38.944Z,82.57
2018-11-27T07:04:38.951Z,82.67
2018-11-27T07:05:38.969Z,82.42
2018-11-27T07:06:38.982Z,81.95
2018-11-27T07:07:39.004Z,81.56
2018-11-27T07:08:39.026Z,81.47
2018-11-27T07:09:39.027Z,81.56
2018-11-27T07:10:39.053Z,83.71
2018-11-27T07:11:39.055Z,83.81
2018-11-27T07:12:39.104Z,83.52
2018-11-27T07:13:39.091Z,84.19
2018-11-27T07:14:39.098Z,84.66
2018-11-27T07:15:39.120Z,84.38
2018-11-27T07:16:39.150Z,83.14
2018-11-27T07:17:39.150Z,83.81
2018-11-27T07:18:39.158Z,83.71
2018-11-27T07:19:39.168Z,83.65
2018-11-27T07:20:39.184Z,83.28
2018-11-27T07:21:39.203Z,82.14
2018-11-27T07:22:39.220Z,83.42
2018-11-27T07:23:39.249Z,83.75
2018-11-27T07:24:39.252Z,82.61
2018-11-27T07:25:39.256Z,82.51
2018-11-27T07:26:39.277Z,82.32
2018-11-27T07:27:39.300Z,82.04
2018-11-27T07:28:39.305Z,81.56
2018-11-27T07:29:39.340Z,81.37
2018-11-27T07:30:39.332Z,81.47
2018-11-27T07:31:39.350Z,81.37
2018-11-27T07:32:39.364Z,81.76
2018-11-27T07:33:39.377Z,83.71
2018-11-27T07:34:39.395Z,84.66
2018-11-27T07:35:39.406Z,84.66
2018-11-27T07:36:39.420Z,83.75
2018-11-27T07:37:39.435Z,82.70
2018-11-27T07:38:39.449Z,83.75
2018-11-27T07:39:39.472Z,83.81
2018-11-27T07:40:39.542Z,83.18
2018-11-27T07:41:39.529Z,83.42
2018-11-27T07:42:39.511Z,84.09
2018-11-27T07:43:39.529Z,83.81
2018-11-27T07:44:39.537Z,84.09
2018-11-27T07:45:39.560Z,83.71
2018-11-27T07:46:39.564Z,83.33
2018-11-27T07:47:39.582Z,83.62
2018-11-27T07:48:39.593Z,84.56
2018-11-27T07:49:39.612Z,84.00
2018-11-27T07:50:39.635Z,84.00
2018-11-27T07:51:39.639Z,82.61
2018-11-27T07:52:39.651Z,82.09
2018-11-27T07:53:39.671Z,82.32
2018-11-27T07:54:39.684Z,81.95
2018-11-27T07:55:39.701Z,82.19
2018-11-27T07:56:39.713Z,83.04
2018-11-27T07:57:39.740Z,82.14
2018-11-27T07:58:39.752Z,81.76
2018-11-27T07:59:39.768Z,81.37
2018-11-27T08:02:39.804Z,83.33
2018-11-27T08:03:39.819Z,84.00
2018-11-27T08:04:39.828Z,83.90
2018-11-27T08:05:39.854Z,84.28
2018-11-27T08:06:39.859Z,84.47
2018-11-27T08:07:39.889Z,84.56
2018-11-27T08:08:39.921Z,84.38
2018-11-27T08:09:39.909Z,83.90
2018-11-27T08:10:39.974Z,83.62
2018-11-27T08:11:39.930Z,83.71
2018-11-27T08:12:39.945Z,82.67
2018-11-27T08:13:39.957Z,82.67
2018-11-27T08:14:39.983Z,83.04
2018-11-27T08:15:40.007Z,82.14
2018-11-27T08:16:40.001Z,81.56
2018-11-27T08:17:40.024Z,80.61
2018-11-27T08:18:40.036Z,80.61
2018-11-27T08:19:40.050Z,81.18
2018-11-27T08:20:40.076Z,81.76
2018-11-27T08:21:40.078Z,81.37
2018-11-27T08:22:40.099Z,81.37
2018-11-27T08:23:40.105Z,81.66
2018-11-27T08:24:40.118Z,81.56
2018-11-27T08:25:40.164Z,81.47
2018-11-27T08:26:40.146Z,81.18
2018-11-27T08:27:40.194Z,80.90
2018-11-27T08:28:40.177Z,80.33
2018-11-27T08:29:40.196Z,80.42
2018-11-27T08:30:40.218Z,79.94
2018-11-27T08:31:40.224Z,81.47
2018-11-27T08:32:40.237Z,82.23
2018-11-27T08:33:40.278Z,82.14
2018-11-27T08:34:40.273Z,82.00
2018-11-27T08:35:40.281Z,83.52
2018-11-27T08:36:40.316Z,83.71
2018-11-27T08:37:40.306Z,82.86
2018-11-27T08:38:40.364Z,82.51
2018-11-27T08:39:40.335Z,81.95
2018-11-27T08:40:40.356Z,81.76
2018-11-27T08:41:40.668Z,81.09
2018-11-27T08:42:40.402Z,80.80
2018-11-27T08:43:40.404Z,81.56
2018-11-27T08:44:40.408Z,81.90
2018-11-27T08:45:40.431Z,82.48
2018-11-27T08:46:40.453Z,82.19
2018-11-27T08:47:40.468Z,82.28
2018-11-27T08:48:40.479Z,82.14
2018-11-27T08:49:40.485Z,82.04
2018-11-27T08:50:40.502Z,81.56
2018-11-27T08:51:40.530Z,81.28
2018-11-27T08:52:40.534Z,80.71
2018-11-27T08:53:40.566Z,80.71
2018-11-27T08:54:40.569Z,80.33
2018-11-27T08:55:40.588Z,79.47
2018-11-27T08:56:40.593Z,80.04
2018-11-27T08:57:40.597Z,80.90
2018-11-27T08:58:40.620Z,80.57
2018-11-27T08:59:40.628Z,82.19
2018-11-27T09:00:40.651Z,82.76
2018-11-27T09:01:40.658Z,81.95
2018-11-27T09:02:40.680Z,81.18
2018-11-27T09:03:40.688Z,81.24
2018-11-27T09:04:40.710Z,81.76
2018-11-27T09:05:40.725Z,80.61
2018-11-27T09:06:40.800Z,79.85
2018-11-27T09:07:40.761Z,80.57
2018-11-27T09:08:40.783Z,81.14
2018-11-27T09:09:40.774Z,81.37
2018-11-27T09:10:40.786Z,80.42
2018-11-27T09:11:40.811Z,80.04
2018-11-27T09:12:40.824Z,79.57
2018-11-27T09:13:40.834Z,79.47
2018-11-27T09:14:40.850Z,80.42
2018-11-27T09:15:40.872Z,80.23
2018-11-27T09:16:40.894Z,80.52
2018-11-27T09:17:40.907Z,80.13
2018-11-27T09:18:40.909Z,80.04
2018-11-27T09:19:40.919Z,79.75
2018-11-27T09:20:40.933Z,79.28
2018-11-27T09:22:40.965Z,79.47
2018-11-27T09:23:41.120Z,78.90
2018-11-27T09:24:40.998Z,79.32
2018-11-27T09:25:41.015Z,78.71
2018-11-27T09:26:41.025Z,80.23
2018-11-27T09:27:41.050Z,81.24
2018-11-27T09:28:41.055Z,81.18
2018-11-27T09:29:41.062Z,81.28
2018-11-27T09:30:41.095Z,81.62
2018-11-27T09:31:41.095Z,81.90
2018-11-27T09:32:41.120Z,81.71
2018-11-27T09:33:41.126Z,81.52
2018-11-27T09:34:41.150Z,82.48
2018-11-27T09:35:41.161Z,81.66
2018-11-27T09:36:41.228Z,81.18
2018-11-27T09:37:41.180Z,79.94
2018-11-27T09:38:41.214Z,80.23
2018-11-27T09:39:41.223Z,80.04
2018-11-27T09:40:41.291Z,80.23
2018-11-27T09:41:41.237Z,80.61
2018-11-27T09:42:41.273Z,80.23
2018-11-27T09:43:41.271Z,80.23
2018-11-27T09:44:41.295Z,79.47
2018-11-27T09:45:41.301Z,79.19
2018-11-27T09:46:41.309Z,78.99
2018-11-27T09:47:41.335Z,79.19
2018-11-27T09:48:41.336Z,80.38
2018-11-27T09:49:41.369Z,81.37
2018-11-27T09:50:41.371Z,80.13
2018-11-27T09:51:41.397Z,79.85
2018-11-27T09:52:41.398Z,80.19
2018-11-27T09:53:41.417Z,80.61
2018-11-27T09:54:41.433Z,80.23
2018-11-27T09:55:41.447Z,79.66
2018-11-27T09:56:41.455Z,79.85
2018-11-27T09:57:41.485Z,79.19
2018-11-27T09:58:41.486Z,78.90
2018-11-27T09:59:41.506Z,79.47
2018-11-27T10:01:41.538Z,78.80
2018-11-27T10:03:41.560Z,78.52
2018-11-27T10:04:41.570Z,78.71
2018-11-27T10:05:41.609Z,78.85
2018-11-27T10:06:41.604Z,79.13
2018-11-27T10:07:41.621Z,78.99
2018-11-27T10:08:41.702Z,79.09
2018-11-27T10:09:41.659Z,79.38
2018-11-27T10:10:41.664Z,78.90
2018-11-27T10:11:42.650Z,78.71
2018-11-27T10:12:41.695Z,78.80
2018-11-27T10:13:41.706Z,78.99
2018-11-27T10:14:41.723Z,79.75
2018-11-27T10:15:41.737Z,80.04
2018-11-27T10:16:41.750Z,79.75
2018-11-27T10:17:41.766Z,79.75
2018-11-27T10:18:41.782Z,79.28
2018-11-27T10:19:41.794Z,78.99
2018-11-27T10:20:41.818Z,79.19
2018-11-27T10:21:41.841Z,79.28
2018-11-27T10:22:41.838Z,79.28
2018-11-27T10:23:41.864Z,79.85
2018-11-27T10:24:41.868Z,79.75
2018-11-27T10:25:41.898Z,79.85
2018-11-27T10:26:41.896Z,79.13
2018-11-27T10:27:41.920Z,79.41
2018-11-27T10:28:41.931Z,79.13
2018-11-27T10:29:41.949Z,79.66
2018-11-27T10:30:41.961Z,81.52
2018-11-27T10:31:41.969Z,82.38
2018-11-27T10:32:41.996Z,81.47
2018-11-27T10:33:42.009Z,81.52
2018-11-27T10:34:42.016Z,82.14
2018-11-27T10:35:42.024Z,81.76
2018-11-27T10:36:42.101Z,81.24
2018-11-27T10:37:42.056Z,81.62
2018-11-27T10:38:42.067Z,82.67
2018-11-27T10:39:42.085Z,83.23
2018-11-27T10:40:42.115Z,82.42
2018-11-27T10:41:42.107Z,81.66
2018-11-27T10:42:42.160Z,81.85
2018-11-27T10:43:42.154Z,81.71
2018-11-27T10:44:42.153Z,82.86
2018-11-27T10:45:42.175Z,82.67
2018-11-27T10:46:42.191Z,82.23
2018-11-27T10:47:42.208Z,81.18
2018-11-27T10:48:42.211Z,80.42
2018-11-27T10:49:42.227Z,80.23
2018-11-27T10:50:42.254Z,79.66
2018-11-27T10:51:42.258Z,80.04
2018-11-27T10:52:42.271Z,79.38
2018-11-27T10:53:42.316Z,79.28
2018-11-27T10:54:42.312Z,79.19
2018-11-27T10:55:42.322Z,78.94
2018-11-27T10:56:42.339Z,78.80
2018-11-27T10:57:42.341Z,80.13
2018-11-27T10:58:42.362Z,81.62
2018-11-27T10:59:42.399Z,82.28
2018-11-27T11:00:42.395Z,82.38
2018-11-27T11:01:42.403Z,81.28
2018-11-27T11:02:42.419Z,81.24
2018-11-27T11:03:42.436Z,82.09
2018-11-27T11:04:42.449Z,82.23
2018-11-27T11:05:42.462Z,81.18
2018-11-27T11:06:42.512Z,80.61
2018-11-27T11:07:42.498Z,79.57
2018-11-27T11:09:42.528Z,81.43
2018-11-27T11:10:42.550Z,81.09
2018-11-27T11:11:42.556Z,80.23
2018-11-27T11:12:42.570Z,79.85
2018-11-27T11:13:42.585Z,79.85
2018-11-27T11:14:42.605Z,79.75
2018-11-27T11:15:42.605Z,79.94
2018-11-27T11:16:42.625Z,80.08
2018-11-27T11:17:42.656Z,79.60
2018-11-27T11:18:42.657Z,79.32
2018-11-27T11:19:42.668Z,79.13
2018-11-27T11:20:42.693Z,79.38
2018-11-27T11:21:42.824Z,79.94
2018-11-27T11:22:42.711Z,79.41
2018-11-27T11:23:42.736Z,78.94
2018-11-27T11:24:42.741Z,78.65
2018-11-27T11:25:42.754Z,79.19
2018-11-27T11:26:42.779Z,79.28
2018-11-27T11:27:42.785Z,79.38
2018-11-27T11:28:42.802Z,79.19
2018-11-27T11:29:42.820Z,79.75
2018-11-27T11:30:42.823Z,79.75
2018-11-27T11:31:42.838Z,79.51
2018-11-27T11:32:42.858Z,79.41
2018-11-27T11:33:42.866Z,79.32
2018-11-27T11:34:42.883Z,79.03
2018-11-27T11:35:42.896Z,79.32
2018-11-27T11:36:42.909Z,78.75
2018-11-27T11:37:42.948Z,78.94
2018-11-27T11:38:42.973Z,79.03
2018-11-27T11:39:42.959Z,79.13
2018-11-27T11:40:42.965Z,79.22
2018-11-27T11:41:42.983Z,79.38
2018-11-27T11:42:42.997Z,79.28
2018-11-27T11:43:43.029Z,80.04
2018-11-27T11:44:43.023Z,79.70
2018-11-27T11:45:43.034Z,79.41
2018-11-27T11:46:43.068Z,79.32
2018-11-27T11:47:43.082Z,79.51
2018-11-27T11:48:43.086Z,79.13
2018-11-27T11:49:43.095Z,79.09
2018-11-27T11:50:43.112Z,80.61
2018-11-27T11:51:43.146Z,80.71
2018-11-27T11:52:45.409Z,80.80
2018-11-27T11:53:43.160Z,80.13
2018-11-27T11:54:43.175Z,80.52
2018-11-27T11:55:43.278Z,80.23
2018-11-27T11:56:43.192Z,80.23
2018-11-27T11:57:43.228Z,80.80
2018-11-27T11:58:43.238Z,80.61
2018-11-27T11:59:43.245Z,80.33
2018-11-27T12:00:43.255Z,79.57
2018-11-27T12:01:43.274Z,79.75
2018-11-27T12:02:43.306Z,79.85
2018-11-27T12:03:43.306Z,80.42
2018-11-27T12:04:43.321Z,80.61
2018-11-27T12:05:43.337Z,80.23
2018-11-27T12:06:43.401Z,80.46
2018-11-27T12:07:43.358Z,79.60
2018-11-27T12:08:43.377Z,79.70
2018-11-27T12:09:43.383Z,79.89
2018-11-27T12:10:43.406Z,79.89
2018-11-27T12:11:43.415Z,80.23
2018-11-27T12:12:43.433Z,80.61
2018-11-27T12:14:43.455Z,81.03
2018-11-27T12:15:43.472Z,80.52
2018-11-27T12:16:43.496Z,82.09
2018-11-27T12:17:43.506Z,82.61
2018-11-27T12:18:43.517Z,81.95
2018-11-27T12:19:43.530Z,80.80
2018-11-27T12:20:43.569Z,80.90
2018-11-27T12:21:43.568Z,80.90
2018-11-27T12:22:43.578Z,81.28
2018-11-27T12:23:43.603Z,80.33
2018-11-27T12:24:43.630Z,80.42
2018-11-27T12:25:43.618Z,80.61
2018-11-27T12:26:43.637Z,80.46
2018-11-27T12:27:43.660Z,80.65
2018-11-27T12:28:44.794Z,80.84
2018-11-27T12:29:43.676Z,80.27
2018-11-27T12:30:43.691Z,80.46
2018-11-27T12:31:43.705Z,80.36
2018-11-27T12:32:43.724Z,80.46
2018-11-27T12:33:43.739Z,81.03
2018-11-27T12:34:43.760Z,80.42
2018-11-27T12:35:43.769Z,80.23
2018-11-27T12:36:43.894Z,81.47
2018-11-27T12:37:43.797Z,82.23
2018-11-27T12:38:43.809Z,81.95
2018-11-27T12:39:43.845Z,81.66
2018-11-27T12:40:43.855Z,81.76
2018-11-27T12:41:43.849Z,81.56
2018-11-27T12:42:43.878Z,81.18
2018-11-27T12:43:43.891Z,81.13
2018-11-27T12:44:43.895Z,81.09
2018-11-27T12:45:43.908Z,81.23
2018-11-27T12:46:43.925Z,81.13
2018-11-27T12:47:43.941Z,81.41
2018-11-27T12:48:43.951Z,81.23
2018-11-27T12:49:43.995Z,81.32
2018-11-27T12:50:44.003Z,81.23
2018-11-27T12:51:44.089Z,80.75
2018-11-27T12:52:44.027Z,81.03
2018-11-27T12:53:44.066Z,81.56
2018-11-27T12:54:44.035Z,82.32
2018-11-27T12:55:44.069Z,82.14
2018-11-27T12:56:44.080Z,82.90
2018-11-27T12:57:44.152Z,81.76
2018-11-27T12:58:44.097Z,82.42
2018-11-27T12:59:44.126Z,82.70
2018-11-27T13:00:44.129Z,83.65
2018-11-27T13:01:44.150Z,82.80
2018-11-27T13:02:44.176Z,81.95
2018-11-27T13:03:44.170Z,81.70
2018-11-27T13:04:44.183Z,82.42
2018-11-27T13:05:44.198Z,82.04
2018-11-27T13:06:44.232Z,81.47
2018-11-27T13:07:44.226Z,81.09